createdAt,value
2023-03-28T00:01:14.974Z,99394.67
2023-03-28T00:03:46.267Z,99401.03
2023-03-28T00:06:19.023Z,99397.88
2023-03-28T00:08:48.329Z,99401.70
2023-03-28T00:11:21.991Z,99394.41
2023-03-28T00:14:03.770Z,99377.08
2023-03-28T00:16:39.664Z,99360.88
2023-03-28T00:19:11.903Z,99357.69
2023-03-28T00:21:47.202Z,99361.95
2023-03-28T00:24:19.037Z,99360.95
2023-03-28T00:26:54.837Z,99361.24
2023-03-28T00:29:26.353Z,99351.20
2023-03-28T00:31:54.634Z,99346.05
2023-03-28T00:34:22.884Z,99349.52
2023-03-28T00:36:54.305Z,99350.70
2023-03-28T00:39:23.960Z,99348.86
2023-03-28T00:41:52.738Z,99341.27
2023-03-28T00:44:46.022Z,99344.23
2023-03-28T00:47:33.650Z,99347.02
2023-03-28T00:50:05.677Z,99347.36
2023-03-28T00:53:10.003Z,99340.90
2023-03-28T00:55:44.804Z,99342.67
2023-03-28T00:58:18.690Z,99345.47
2023-03-28T01:00:47.358Z,99343.31
2023-03-28T01:03:22.823Z,99328.14
2023-03-28T01:05:52.614Z,99326.38
2023-03-28T01:08:25.653Z,99330.07
2023-03-28T01:10:55.319Z,99332.71
2023-03-28T01:13:31.673Z,99336.77
2023-03-28T01:16:04.163Z,99330.93
2023-03-28T01:18:35.991Z,99325.80
2023-03-28T01:21:20.737Z,99321.56
2023-03-28T01:24:28.752Z,99318.12
2023-03-28T01:27:31.509Z,99315.27
2023-03-28T01:30:21.562Z,99315.20
2023-03-28T01:33:31.226Z,99307.06
2023-03-28T01:36:34.530Z,99312.68
2023-03-28T01:39:22.046Z,99296.78
2023-03-28T01:42:15.109Z,99301.46
2023-03-28T01:45:11.859Z,99301.18
2023-03-28T01:47:42.514Z,99287.05
2023-03-28T01:50:30.174Z,99282.27
2023-03-28T01:53:35.788Z,99298.58
2023-03-28T01:56:41.557Z,99301.02
2023-03-28T01:59:19.975Z,99297.48
2023-03-28T02:02:10.000Z,99292.19
2023-03-28T02:04:42.232Z,99288.19
2023-03-28T02:07:13.435Z,99287.69
2023-03-28T02:10:05.044Z,99279.02
2023-03-28T02:12:59.867Z,99274.33
2023-03-28T02:16:01.592Z,99267.17
2023-03-28T02:19:01.585Z,99255.24
2023-03-28T02:22:03.469Z,99255.14
2023-03-28T02:24:57.996Z,99253.84
2023-03-28T02:27:41.404Z,99253.62
2023-03-28T02:30:18.032Z,99256.59
2023-03-28T02:32:50.801Z,99261.09
2023-03-28T02:35:28.003Z,99264.41
2023-03-28T02:37:59.474Z,99262.61
2023-03-28T02:40:43.586Z,99257.19
2023-03-28T02:43:30.749Z,99250.44
2023-03-28T02:46:27.391Z,99251.96
2023-03-28T02:49:16.687Z,99259.55
2023-03-28T02:52:16.764Z,99255.16
2023-03-28T02:55:06.460Z,99252.76
2023-03-28T02:58:08.383Z,99256.79
2023-03-28T03:00:39.915Z,99259.95
2023-03-28T03:03:10.841Z,99258.17
2023-03-28T03:05:39.450Z,99257.54
2023-03-28T03:08:07.991Z,99255.11
2023-03-28T03:10:50.665Z,99258.86
2023-03-28T03:13:20.832Z,99253.43
2023-03-28T03:15:50.386Z,99256.45
2023-03-28T03:18:24.820Z,99256.41
2023-03-28T03:20:53.884Z,99250.96
2023-03-28T03:23:27.752Z,99246.01
2023-03-28T03:25:58.748Z,99239.09
2023-03-28T03:28:33.555Z,99229.02
2023-03-28T03:31:04.997Z,99228.45
2023-03-28T03:33:34.669Z,99226.34
2023-03-28T03:36:13.012Z,99226.70
2023-03-28T03:38:44.971Z,99227.73
2023-03-28T03:41:17.386Z,99227.70
2023-03-28T03:43:47.465Z,99233.39
2023-03-28T03:46:16.027Z,99242.89
2023-03-28T03:48:49.946Z,99246.21
2023-03-28T03:51:19.501Z,99249.18
2023-03-28T03:53:50.916Z,99251.25
2023-03-28T03:56:21.435Z,99252.91
2023-03-28T03:59:00.614Z,99254.73
2023-03-28T04:01:35.254Z,99255.33
2023-03-28T04:04:30.811Z,99249.60
2023-03-28T04:07:07.686Z,99244.44
2023-03-28T04:09:41.105Z,99242.89
2023-03-28T04:12:11.873Z,99230.88
2023-03-28T04:14:58.086Z,99224.08
2023-03-28T04:17:50.519Z,99223.92
2023-03-28T04:20:22.518Z,99222.41
2023-03-28T04:23:10.819Z,99216.70
2023-03-28T04:25:43.244Z,99215.51
2023-03-28T04:28:18.153Z,99211.09
2023-03-28T04:30:59.947Z,99209.27
2023-03-28T04:34:10.760Z,99206.25
2023-03-28T04:36:47.451Z,99209.65
2023-03-28T04:39:15.714Z,99213.73
2023-03-28T04:42:04.658Z,99215.94
2023-03-28T04:44:55.984Z,99216.27
2023-03-28T04:47:25.687Z,99215.09
2023-03-28T04:49:54.463Z,99218.11
2023-03-28T04:52:23.254Z,99214.00
2023-03-28T04:54:51.649Z,99205.30
2023-03-28T04:57:27.596Z,99206.45
2023-03-28T05:00:01.667Z,99215.73
2023-03-28T05:02:49.740Z,99209.23
2023-03-28T05:05:23.576Z,99210.74
2023-03-28T05:07:52.490Z,99214.39
2023-03-28T05:10:22.311Z,99215.29
2023-03-28T05:12:52.806Z,99216.49
2023-03-28T05:15:23.382Z,99215.99
2023-03-28T05:18:18.100Z,99212.39
2023-03-28T05:20:48.291Z,99204.67
2023-03-28T05:23:16.898Z,99201.03
2023-03-28T05:25:53.231Z,99200.49
2023-03-28T05:28:22.550Z,99201.41
2023-03-28T05:30:53.180Z,99199.77
2023-03-28T05:33:22.629Z,99197.77
2023-03-28T05:35:51.125Z,99199.46
2023-03-28T05:38:22.705Z,99192.40
2023-03-28T05:40:54.708Z,99193.90
2023-03-28T05:43:23.155Z,99188.86
2023-03-28T05:45:52.537Z,99181.11
2023-03-28T05:48:24.254Z,99171.38
2023-03-28T05:50:56.598Z,99167.86
2023-03-28T05:53:25.785Z,99171.40
2023-03-28T05:55:54.092Z,99174.48
2023-03-28T05:58:22.990Z,99180.16
2023-03-28T06:00:52.642Z,99183.25
2023-03-28T06:03:23.632Z,99188.28
2023-03-28T06:05:52.313Z,99193.60
2023-03-28T06:08:23.215Z,99184.98
2023-03-28T06:11:00.975Z,99183.67
2023-03-28T06:13:34.128Z,99181.23
2023-03-28T06:16:03.876Z,99167.54
2023-03-28T06:18:35.919Z,99166.61
2023-03-28T06:21:05.178Z,99169.08
2023-03-28T06:23:33.746Z,99158.78
2023-03-28T06:26:05.299Z,99160.53
2023-03-28T06:28:38.832Z,99158.70
2023-03-28T06:31:36.883Z,99158.05
2023-03-28T06:34:05.282Z,99155.36
2023-03-28T06:36:35.956Z,99150.73
2023-03-28T06:39:04.750Z,99146.86
2023-03-28T06:41:35.210Z,99145.15
2023-03-28T06:44:04.612Z,99136.90
2023-03-28T06:47:01.550Z,99136.16
2023-03-28T06:49:30.100Z,99136.02
2023-03-28T06:52:37.743Z,99139.29
2023-03-28T06:55:08.502Z,99142.34
2023-03-28T06:57:36.974Z,99139.09
2023-03-28T07:00:15.907Z,99136.89
2023-03-28T07:03:03.280Z,99124.41
2023-03-28T07:05:40.054Z,99119.27
2023-03-28T07:08:10.543Z,99114.23
2023-03-28T07:10:40.766Z,99102.41
2023-03-28T07:13:11.207Z,99093.64
2023-03-28T07:15:47.534Z,99079.10
2023-03-28T07:18:15.967Z,99079.55
2023-03-28T07:20:45.653Z,99083.39
2023-03-28T07:23:18.150Z,99080.27
2023-03-28T07:25:46.453Z,99080.56
2023-03-28T07:28:17.412Z,99082.81
2023-03-28T07:30:45.784Z,99080.59
2023-03-28T07:33:23.438Z,99080.66
2023-03-28T07:35:57.100Z,99078.35
2023-03-28T07:38:25.787Z,99071.33
2023-03-28T07:41:01.575Z,99067.92
2023-03-28T07:43:30.715Z,99069.16
2023-03-28T07:46:06.837Z,99061.17
2023-03-28T07:48:38.127Z,99057.96
2023-03-28T07:51:07.944Z,99062.34
2023-03-28T07:53:38.035Z,99052.66
2023-03-28T07:56:12.375Z,99045.09
2023-03-28T07:59:02.213Z,99042.00
2023-03-28T08:01:32.368Z,99038.09
2023-03-28T08:04:05.401Z,99036.45
2023-03-28T08:06:45.910Z,99030.98
2023-03-28T08:09:17.048Z,99023.42
2023-03-28T08:11:51.479Z,99023.27
2023-03-28T08:14:20.548Z,99010.52
2023-03-28T08:16:48.848Z,99007.01
2023-03-28T08:19:18.142Z,99002.52
2023-03-28T08:22:05.763Z,98996.44
2023-03-28T08:24:38.883Z,98996.02
2023-03-28T08:27:12.555Z,98983.95
2023-03-28T08:29:42.087Z,98971.09
2023-03-28T08:32:11.223Z,98966.88
2023-03-28T08:34:41.464Z,98966.31
2023-03-28T08:37:15.596Z,98959.01
2023-03-28T08:39:47.466Z,98958.55
2023-03-28T08:42:39.529Z,98945.70
2023-03-28T08:45:26.832Z,98944.95
2023-03-28T08:48:47.235Z,98941.61
2023-03-28T08:51:40.684Z,98943.03
2023-03-28T08:54:24.942Z,98942.37
2023-03-28T08:56:57.415Z,98920.19
2023-03-28T08:59:29.656Z,98921.04
2023-03-28T09:01:58.036Z,98913.73
2023-03-28T09:04:35.314Z,98912.13
2023-03-28T09:07:15.722Z,98900.52
2023-03-28T09:10:00.000Z,98889.60
2023-03-28T09:12:58.683Z,98885.97
2023-03-28T09:16:09.572Z,98876.42
2023-03-28T09:19:10.766Z,98875.16
2023-03-28T09:22:15.162Z,98866.23
2023-03-28T09:25:30.985Z,98854.20
2023-03-28T09:28:25.724Z,98849.41
2023-03-28T09:30:58.133Z,98848.48
2023-03-28T09:33:40.861Z,98840.70
2023-03-28T09:36:13.887Z,98836.88
2023-03-28T09:38:52.117Z,98824.50
2023-03-28T09:41:28.890Z,98822.08
2023-03-28T09:44:21.789Z,98815.69
2023-03-28T09:47:25.040Z,98808.47
2023-03-28T09:50:11.918Z,98813.70
2023-03-28T09:52:49.018Z,98808.02
2023-03-28T09:55:30.812Z,98812.66
2023-03-28T09:58:12.129Z,98808.34
2023-03-28T10:01:00.656Z,98801.41
2023-03-28T10:03:54.508Z,98797.73
2023-03-28T10:06:32.172Z,98798.44
2023-03-28T10:09:29.049Z,98796.99
2023-03-28T10:12:04.972Z,98785.98
2023-03-28T10:14:46.856Z,98777.75
2023-03-28T10:17:40.757Z,98773.06
2023-03-28T10:20:17.513Z,98770.42
2023-03-28T10:22:53.045Z,98764.98
2023-03-28T10:25:32.187Z,98769.66
2023-03-28T10:28:01.273Z,98767.13
2023-03-28T10:30:32.760Z,98760.34
2023-03-28T10:33:29.681Z,98752.52
2023-03-28T10:36:33.221Z,98749.62
2023-03-28T10:39:26.944Z,98732.94
2023-03-28T10:42:15.708Z,98727.33
2023-03-28T10:45:36.887Z,98723.90
2023-03-28T10:48:23.125Z,98718.94
2023-03-28T10:50:54.951Z,98711.02
2023-03-28T10:53:49.398Z,98703.73
2023-03-28T10:56:41.618Z,98698.91
2023-03-28T10:59:19.254Z,98688.48
2023-03-28T11:01:48.046Z,98690.87
2023-03-28T11:04:41.249Z,98686.83
2023-03-28T11:07:51.595Z,98682.29
2023-03-28T11:10:46.139Z,98677.20
2023-03-28T11:13:28.034Z,98669.58
2023-03-28T11:16:06.274Z,98675.15
2023-03-28T11:19:00.282Z,98674.93
2023-03-28T11:21:52.540Z,98671.21
2023-03-28T11:24:37.846Z,98674.23
2023-03-28T11:27:16.487Z,98670.67
2023-03-28T11:30:16.051Z,98675.06
2023-03-28T11:33:03.138Z,98681.18
2023-03-28T11:35:37.880Z,98674.83
2023-03-28T11:38:22.627Z,98668.35
2023-03-28T11:41:22.068Z,98678.29
2023-03-28T11:44:31.680Z,98661.37
2023-03-28T11:47:08.533Z,98652.66
2023-03-28T11:49:46.202Z,98652.13
2023-03-28T11:52:45.967Z,98651.98
2023-03-28T11:55:23.825Z,98653.08
2023-03-28T11:58:01.504Z,98645.70
2023-03-28T12:00:44.073Z,98658.30
2023-03-28T12:03:23.675Z,98667.34
2023-03-28T12:06:26.341Z,98674.76
2023-03-28T12:09:07.835Z,98675.59
2023-03-28T12:11:43.384Z,98672.75
2023-03-28T12:14:12.624Z,98676.64
2023-03-28T12:16:49.795Z,98676.10
2023-03-28T12:19:40.287Z,98681.68
2023-03-28T12:22:22.891Z,98675.02
2023-03-28T12:24:52.768Z,98673.87
2023-03-28T12:27:49.962Z,98684.34
2023-03-28T12:30:35.916Z,98685.45
2023-03-28T12:33:23.473Z,98670.30
2023-03-28T12:36:10.724Z,98665.60
2023-03-28T12:38:45.818Z,98664.14
2023-03-28T12:41:36.504Z,98662.44
2023-03-28T12:44:24.806Z,98672.84
2023-03-28T12:47:03.019Z,98682.09
2023-03-28T12:49:48.759Z,98672.75
2023-03-28T12:52:23.472Z,98664.86
2023-03-28T12:55:01.594Z,98665.55
2023-03-28T12:57:47.426Z,98663.76
2023-03-28T13:01:20.061Z,98653.49
2023-03-28T13:04:29.234Z,98653.69
2023-03-28T13:07:17.785Z,98653.20
2023-03-28T13:09:56.230Z,98655.30
2023-03-28T13:12:38.234Z,98663.31
2023-03-28T13:15:15.734Z,98665.49
2023-03-28T13:18:08.353Z,98667.73
2023-03-28T13:20:46.108Z,98666.29
2023-03-28T13:23:16.849Z,98667.47
2023-03-28T13:26:02.766Z,98662.10
2023-03-28T13:28:33.113Z,98665.87
2023-03-28T13:31:34.249Z,98663.61
2023-03-28T13:34:03.886Z,98660.86
2023-03-28T13:36:51.341Z,98659.86
2023-03-28T13:39:26.289Z,98668.84
2023-03-28T13:41:57.328Z,98669.90
2023-03-28T13:44:40.600Z,98664.93
2023-03-28T13:47:18.206Z,98664.42
2023-03-28T13:50:00.412Z,98663.33
2023-03-28T13:52:28.830Z,98653.95
2023-03-28T13:55:01.711Z,98652.60
2023-03-28T13:57:30.347Z,98651.52
2023-03-28T14:00:01.718Z,98660.10
2023-03-28T14:02:49.297Z,98669.31
2023-03-28T14:05:29.474Z,98679.70
2023-03-28T14:08:13.438Z,98678.27
2023-03-28T14:10:46.438Z,98683.91
2023-03-28T14:13:33.732Z,98683.16
2023-03-28T14:16:02.267Z,98687.05
2023-03-28T14:18:37.306Z,98691.63
2023-03-28T14:21:07.953Z,98688.34
2023-03-28T14:23:40.059Z,98681.47
2023-03-28T14:26:17.455Z,98679.55
2023-03-28T14:28:47.650Z,98675.82
2023-03-28T14:31:38.679Z,98672.54
2023-03-28T14:34:18.357Z,98675.88
2023-03-28T14:37:15.046Z,98683.83
2023-03-28T14:39:45.561Z,98680.21
2023-03-28T14:42:17.218Z,98672.41
2023-03-28T14:44:50.987Z,98667.61
2023-03-28T14:47:33.583Z,98665.08
2023-03-28T14:50:02.629Z,98654.45
2023-03-28T14:52:37.404Z,98653.27
2023-03-28T14:55:06.715Z,98650.49
2023-03-28T14:57:37.967Z,98654.30
2023-03-28T15:00:13.101Z,98652.69
2023-03-28T15:02:46.456Z,98644.29
2023-03-28T15:05:19.760Z,98637.64
2023-03-28T15:08:00.334Z,98641.55
2023-03-28T15:10:29.919Z,98636.34
2023-03-28T15:13:02.249Z,98628.80
2023-03-28T15:15:33.594Z,98637.75
2023-03-28T15:18:07.057Z,98643.36
2023-03-28T15:20:38.403Z,98637.35
2023-03-28T15:23:27.896Z,98637.17
2023-03-28T15:25:59.830Z,98640.86
2023-03-28T15:28:28.886Z,98642.06
2023-03-28T15:31:00.788Z,98643.65
2023-03-28T15:33:33.937Z,98652.61
2023-03-28T15:36:12.426Z,98651.00
2023-03-28T15:39:10.810Z,98649.23
2023-03-28T15:41:39.255Z,98655.08
2023-03-28T15:44:31.356Z,98654.59
2023-03-28T15:47:29.543Z,98655.09
2023-03-28T15:50:06.363Z,98655.82
2023-03-28T15:52:35.930Z,98655.98
2023-03-28T15:55:06.515Z,98657.15
2023-03-28T15:57:39.054Z,98657.88
2023-03-28T16:00:28.227Z,98661.23
2023-03-28T16:03:18.128Z,98666.25
2023-03-28T16:05:52.439Z,98664.69
2023-03-28T16:08:33.996Z,98670.46
2023-03-28T16:11:05.211Z,98671.13
2023-03-28T16:13:37.871Z,98673.67
2023-03-28T16:16:07.506Z,98672.36
2023-03-28T16:18:59.303Z,98674.71
2023-03-28T16:21:32.145Z,98674.95
2023-03-28T16:24:00.562Z,98677.48
2023-03-28T16:26:29.355Z,98681.81
2023-03-28T16:28:57.735Z,98678.70
2023-03-28T16:31:31.030Z,98682.84
2023-03-28T16:34:00.495Z,98680.11
2023-03-28T16:36:28.907Z,98676.10
2023-03-28T16:38:57.250Z,98678.34
2023-03-28T16:41:26.843Z,98672.41
2023-03-28T16:43:56.520Z,98674.23
2023-03-28T16:46:25.200Z,98672.80
2023-03-28T16:48:54.021Z,98671.34
2023-03-28T16:51:22.412Z,98671.77
2023-03-28T16:53:50.804Z,98669.15
2023-03-28T16:56:19.524Z,98665.64
2023-03-28T16:58:48.519Z,98663.16
2023-03-28T17:01:19.550Z,98662.89
2023-03-28T17:03:49.827Z,98659.38
2023-03-28T17:06:18.193Z,98660.04
2023-03-28T17:08:47.193Z,98658.77
2023-03-28T17:11:16.337Z,98656.86
2023-03-28T17:13:47.653Z,98660.70
2023-03-28T17:16:16.521Z,98662.23
2023-03-28T17:18:45.522Z,98663.92
2023-03-28T17:21:16.228Z,98662.66
2023-03-28T17:23:48.140Z,98670.27
2023-03-28T17:26:17.572Z,98670.47
2023-03-28T17:28:46.954Z,98671.67
2023-03-28T17:31:18.841Z,98677.15
2023-03-28T17:33:48.114Z,98679.41
2023-03-28T17:36:25.919Z,98676.77
2023-03-28T17:38:57.764Z,98679.58
2023-03-28T17:41:27.946Z,98683.26
2023-03-28T17:43:57.852Z,98680.40
2023-03-28T17:46:26.908Z,98681.35
2023-03-28T17:48:55.602Z,98678.30
2023-03-28T17:51:24.565Z,98674.16
2023-03-28T17:53:54.336Z,98673.50
2023-03-28T17:56:24.488Z,98679.21
2023-03-28T17:58:52.743Z,98677.52
2023-03-28T18:01:21.301Z,98678.39
2023-03-28T18:03:51.502Z,98676.61
2023-03-28T18:06:33.627Z,98674.35
2023-03-28T18:09:01.969Z,98680.41
2023-03-28T18:11:31.671Z,98675.84
2023-03-28T18:14:00.876Z,98674.11
2023-03-28T18:16:29.945Z,98674.73
2023-03-28T18:18:58.451Z,98674.08
2023-03-28T18:21:27.856Z,98675.96
2023-03-28T18:23:57.682Z,98676.30
2023-03-28T18:26:28.900Z,98680.25
2023-03-28T18:28:59.126Z,98683.50
2023-03-28T18:31:29.046Z,98686.61
2023-03-28T18:33:58.014Z,98685.45
2023-03-28T18:36:26.664Z,98680.83
2023-03-28T18:38:56.317Z,98681.74
2023-03-28T18:41:30.387Z,98683.52
2023-03-28T18:44:00.469Z,98683.01
2023-03-28T18:46:30.266Z,98683.02
2023-03-28T18:49:00.560Z,98682.48
2023-03-28T18:51:29.586Z,98678.15
2023-03-28T18:53:58.667Z,98672.92
2023-03-28T18:56:27.304Z,98672.95
2023-03-28T18:58:57.572Z,98677.89
2023-03-28T19:01:26.753Z,98675.55
2023-03-28T19:03:56.080Z,98675.13
2023-03-28T19:06:24.568Z,98672.94
2023-03-28T19:08:52.870Z,98669.15
2023-03-28T19:11:21.658Z,98670.27
2023-03-28T19:13:56.211Z,98665.70
2023-03-28T19:16:25.238Z,98667.38
2023-03-28T19:18:53.920Z,98665.64
2023-03-28T19:21:22.265Z,98666.11
2023-03-28T19:23:50.990Z,98664.89
2023-03-28T19:26:20.052Z,98665.19
2023-03-28T19:28:49.847Z,98664.73
2023-03-28T19:31:20.426Z,98669.29
2023-03-28T19:33:49.360Z,98668.17
2023-03-28T19:36:18.144Z,98671.88
2023-03-28T19:38:46.814Z,98674.80
2023-03-28T19:41:22.299Z,98681.35
2023-03-28T19:43:55.522Z,98685.60
2023-03-28T19:46:33.171Z,98687.02
2023-03-28T19:49:06.678Z,98687.73
2023-03-28T19:51:35.314Z,98693.77
2023-03-28T19:54:03.875Z,98699.67
2023-03-28T19:56:32.786Z,98702.55
2023-03-28T19:59:01.451Z,98702.59
2023-03-28T20:01:32.108Z,98702.83
2023-03-28T20:04:02.565Z,98698.82
2023-03-28T20:06:31.070Z,98697.09
2023-03-28T20:09:06.343Z,98696.54
2023-03-28T20:11:35.976Z,98697.84
2023-03-28T20:14:04.411Z,98706.54
2023-03-28T20:16:38.634Z,98704.52
2023-03-28T20:19:07.254Z,98711.40
2023-03-28T20:21:35.644Z,98715.02
2023-03-28T20:24:04.553Z,98719.39
2023-03-28T20:26:33.287Z,98717.14
2023-03-28T20:29:10.439Z,98722.61
2023-03-28T20:31:40.523Z,98724.46
2023-03-28T20:34:09.022Z,98725.46
2023-03-28T20:36:42.450Z,98729.16
2023-03-28T20:39:11.237Z,98729.74
2023-03-28T20:41:40.174Z,98737.69
2023-03-28T20:44:20.262Z,98740.59
2023-03-28T20:46:49.398Z,98740.13
2023-03-28T20:49:22.906Z,98744.58
2023-03-28T20:51:52.590Z,98749.48
2023-03-28T20:54:24.481Z,98758.36
2023-03-28T20:56:56.100Z,98759.40
2023-03-28T20:59:27.519Z,98762.48
2023-03-28T21:01:56.140Z,98760.27
2023-03-28T21:04:25.296Z,98760.48
2023-03-28T21:06:58.729Z,98762.36
2023-03-28T21:09:27.555Z,98763.55
2023-03-28T21:11:55.845Z,98765.70
2023-03-28T21:14:29.498Z,98769.52
2023-03-28T21:16:58.294Z,98771.58
2023-03-28T21:19:26.980Z,98776.23
2023-03-28T21:21:57.347Z,98782.46
2023-03-28T21:24:26.169Z,98782.52
2023-03-28T21:26:54.688Z,98781.94
2023-03-28T21:29:24.770Z,98782.17
2023-03-28T21:31:53.880Z,98784.70
2023-03-28T21:34:30.781Z,98784.64
2023-03-28T21:36:59.284Z,98788.99
2023-03-28T21:39:27.962Z,98789.24
2023-03-28T21:42:00.233Z,98792.06
2023-03-28T21:44:30.238Z,98790.73
2023-03-28T21:46:58.683Z,98784.67
2023-03-28T21:49:27.215Z,98779.34
2023-03-28T21:51:55.781Z,98779.44
2023-03-28T21:54:24.097Z,98780.54
2023-03-28T21:56:52.784Z,98781.77
2023-03-28T21:59:21.282Z,98781.44
2023-03-28T22:01:53.409Z,98779.80
2023-03-28T22:04:22.653Z,98778.79
2023-03-28T22:06:51.545Z,98781.27
2023-03-28T22:09:21.849Z,98782.61
2023-03-28T22:11:50.286Z,98784.35
2023-03-28T22:14:19.600Z,98787.13
2023-03-28T22:16:49.479Z,98786.75
2023-03-28T22:19:18.961Z,98793.14
2023-03-28T22:21:51.682Z,98796.48
2023-03-28T22:24:20.074Z,98798.98
2023-03-28T22:26:53.116Z,98809.34
2023-03-28T22:29:22.605Z,98817.11
2023-03-28T22:31:50.929Z,98818.25
2023-03-28T22:34:21.230Z,98819.62
2023-03-28T22:36:50.312Z,98823.58
2023-03-28T22:39:19.550Z,98828.37
2023-03-28T22:41:48.442Z,98830.77
2023-03-28T22:44:17.398Z,98829.81
2023-03-28T22:46:45.787Z,98835.23
2023-03-28T22:49:22.182Z,98831.02
2023-03-28T22:51:51.089Z,98836.85
2023-03-28T22:54:22.927Z,98841.83
2023-03-28T22:56:51.197Z,98844.92
2023-03-28T22:59:19.999Z,98851.46
2023-03-28T23:01:49.648Z,98859.75
2023-03-28T23:04:20.552Z,98865.00
2023-03-28T23:06:51.382Z,98869.20
2023-03-28T23:09:20.505Z,98871.16
2023-03-28T23:11:55.272Z,98878.71
2023-03-28T23:14:23.679Z,98885.37
2023-03-28T23:16:52.695Z,98893.81
2023-03-28T23:19:24.403Z,98900.14
2023-03-28T23:21:54.869Z,98897.48
2023-03-28T23:24:23.483Z,98899.49
2023-03-28T23:26:52.210Z,98894.10
2023-03-28T23:29:20.710Z,98891.27
2023-03-28T23:31:50.871Z,98902.54
2023-03-28T23:34:19.390Z,98900.77
2023-03-28T23:36:50.761Z,98898.77
2023-03-28T23:39:19.266Z,98902.70
2023-03-28T23:41:47.813Z,98899.64
2023-03-28T23:44:18.577Z,98904.07
2023-03-28T23:46:49.975Z,98903.41
2023-03-28T23:49:19.234Z,98908.24
2023-03-28T23:51:47.767Z,98911.64
2023-03-28T23:54:18.241Z,98915.73
2023-03-28T23:56:49.359Z,98921.29
2023-03-28T23:59:17.931Z,98925.95
